Time,TemperatureF,DewpointF,PressureIn,WindDirection,WindDirectionDegrees,WindSpeedMPH,WindSpeedGustMPH,Humidity,HourlyPrecipIn,Conditions,Clouds,dailyrainin,SolarRadiationWatts/m^2,SoftwareType,DateUTC
2013-08-01 00:08:00,63.1,62.0,30.10,WSW,257,0.0,0.0,96,0.00,,,0.00,0,weatherlink.com 1.10,2013-08-01 04:08:00,
2013-08-01 00:23:00,63.0,62.0,30.10,WSW,257,0.0,0.0,96,0.00,,,0.00,0,weatherlink.com 1.10,2013-08-01 04:23:00,
2013-08-01 00:38:00,62.9,62.0,30.10,WSW,257,0.0,0.0,96,0.00,,,0.00,0,weatherlink.com 1.10,2013-08-01 04:38:00,
2013-08-01 00:53:00,62.8,62.0,30.10,WSW,257,0.0,0.0,96,0.00,,,0.00,0,weatherlink.com 1.10,2013-08-01 04:53:00,
2013-08-01 01:08:00,62.7,62.0,30.09,WSW,257,0.0,0.0,96,0.00,,,0.00,0,weatherlink.com 1.10,2013-08-01 05:08:00,
2013-08-01 01:23:00,62.6,62.0,30.09,WSW,257,0.0,0.0,97,0.00,,,0.00,0,weatherlink.com 1.10,2013-08-01 05:23:00,
2013-08-01 01:38:00,62.5,62.0,30.09,WSW,257,0.0,0.0,97,0.00,,,0.00,0,weatherlink.com 1.10,2013-08-01 05:38:00,
2013-08-01 01:53:00,62.5,62.0,30.08,WSW,257,0.0,0.0,97,0.00,,,0.00,0,weatherlink.com 1.10,2013-08-01 05:53:00,
2013-08-01 02:08:00,62.6,62.0,30.08,WSW,257,0.0,0.0,97,0.00,,,0.00,0,weatherlink.com 1.10,2013-08-01 06:08:00,
2013-08-01 02:23:00,62.7,62.0,30.07,WSW,257,0.0,0.0,97,0.00,,,0.00,0,weatherlink.com 1.10,2013-08-01 06:23:00,
2013-08-01 02:39:00,62.3,61.0,30.07,WSW,257,0.0,0.0,96,0.00,,,0.00,0,weatherlink.com 1.10,2013-08-01 06:39:00,
2013-08-01 02:54:00,62.2,61.0,30.07,WSW,257,0.0,0.0,97,0.00,,,0.00,0,weatherlink.com 1.10,2013-08-01 06:54:00,
2013-08-01 03:09:00,62.3,62.0,30.06,WSW,257,0.0,0.0,97,0.00,,,0.00,0,weatherlink.com 1.10,2013-08-01 07:09:00,
2013-08-01 03:24:00,62.3,62.0,30.06,WSW,257,0.0,0.0,97,0.00,,,0.00,0,weatherlink.com 1.10,2013-08-01 07:24:00,
2013-08-01 03:39:00,62.4,62.0,30.05,WSW,257,0.0,0.0,97,0.00,,,0.00,0,weatherlink.com 1.10,2013-08-01 07:39:00,
2013-08-01 03:54:00,62.4,62.0,30.05,WSW,257,0.0,0.0,97,0.00,,,0.00,0,weatherlink.com 1.10,2013-08-01 07:54:00,
2013-08-01 04:09:00,62.4,62.0,30.05,WSW,257,0.0,0.0,97,0.00,,,0.00,0,weatherlink.com 1.10,2013-08-01 08:09:00,
2013-08-01 04:24:00,62.3,62.0,30.05,WSW,257,0.0,0.0,97,0.00,,,0.00,0,weatherlink.com 1.10,2013-08-01 08:24:00,
2013-08-01 04:54:00,62.4,62.0,30.05,WSW,257,0.0,0.0,97,0.00,,,0.00,0,weatherlink.com 1.10,2013-08-01 08:54:00,
2013-08-01 05:24:00,62.1,61.0,30.04,WSW,257,0.0,0.0,97,0.00,,,0.00,0,weatherlink.com 1.10,2013-08-01 09:24:00,
2013-08-01 05:54:00,62.2,62.0,30.04,WSW,257,0.0,0.0,98,0.00,,,0.00,0,weatherlink.com 1.10,2013-08-01 09:54:00,
2013-08-01 06:24:00,62.5,62.0,30.05,WSW,257,0.0,0.0,98,0.00,,,0.00,21,weatherlink.com 1.10,2013-08-01 10:24:00,
2013-08-01 06:39:00,62.9,62.0,30.05,WSW,257,0.0,0.0,98,0.00,,,0.00,32,weatherlink.com 1.10,2013-08-01 10:39:00,
2013-08-01 06:54:00,63.4,63.0,30.05,WSW,257,0.0,1.0,98,0.00,,,0.00,25,weatherlink.com 1.10,2013-08-01 10:54:00,
2013-08-01 07:24:00,64.3,64.0,30.04,West,259,0.0,0.0,98,0.00,,,0.00,35,weatherlink.com 1.10,2013-08-01 11:24:00,
2013-08-01 07:39:00,65.1,65.0,30.05,West,259,0.0,0.0,98,0.00,,,0.00,67,weatherlink.com 1.10,2013-08-01 11:39:00,
2013-08-01 08:39:00,69.5,69.0,30.04,NE,36,4.0,4.0,97,0.00,,,0.00,54,weatherlink.com 1.10,2013-08-01 12:39:00,
2013-08-01 08:54:00,71.1,69.0,30.04,NNW,344,1.0,4.0,94,0.00,,,0.00,72,weatherlink.com 1.10,2013-08-01 12:54:00,
2013-08-01 09:09:00,72.8,70.0,30.04,SW,229,5.0,5.0,89,0.00,,,0.00,100,weatherlink.com 1.10,2013-08-01 13:09:00,
2013-08-01 09:39:00,76.5,70.0,30.03,NE,38,2.0,5.0,81,0.00,,,0.00,534,weatherlink.com 1.10,2013-08-01 13:39:00,
2013-08-01 10:09:00,79.2,69.0,30.03,East,82,0.0,7.0,71,0.00,,,0.00,522,weatherlink.com 1.10,2013-08-01 14:09:00,
2013-08-01 10:39:00,81.1,71.0,30.02,NE,48,3.0,5.0,71,0.00,,,0.00,854,weatherlink.com 1.10,2013-08-01 14:39:00,
2013-08-01 10:55:00,80.1,70.0,30.02,ENE,63,1.0,4.0,72,0.00,,,0.00,267,weatherlink.com 1.10,2013-08-01 14:55:00,
2013-08-01 11:10:00,80.2,70.0,30.02,WNW,303,0.0,4.0,70,0.00,,,0.00,476,weatherlink.com 1.10,2013-08-01 15:10:00,
2013-08-01 11:40:00,78.6,68.0,30.02,North,355,2.0,9.0,71,0.00,,,0.00,431,weatherlink.com 1.10,2013-08-01 15:40:00,
2013-08-01 11:55:00,80.0,71.0,30.01,SE,137,2.0,10.0,73,0.00,,,0.00,944,weatherlink.com 1.10,2013-08-01 15:55:00,
2013-08-01 12:10:00,81.1,69.0,30.00,ESE,111,2.0,7.0,67,0.00,,,0.00,510,weatherlink.com 1.10,2013-08-01 16:10:00,
2013-08-01 12:25:00,80.1,69.0,30.00,East,97,1.0,7.0,69,0.00,,,0.00,619,weatherlink.com 1.10,2013-08-01 16:25:00,
2013-08-01 12:40:00,81.8,73.0,30.00,WNW,298,2.0,5.0,74,0.00,,,0.00,1093,weatherlink.com 1.10,2013-08-01 16:40:00,
2013-08-01 13:10:00,79.3,68.0,30.00,West,263,2.0,5.0,68,0.00,,,0.00,155,weatherlink.com 1.10,2013-08-01 17:10:00,
2013-08-01 13:25:00,77.9,67.0,30.00,NNE,23,2.0,5.0,68,0.00,,,0.00,125,weatherlink.com 1.10,2013-08-01 17:25:00,
2013-08-01 13:40:00,75.7,66.0,29.99,NW,307,2.0,4.0,72,0.00,,,0.00,167,weatherlink.com 1.10,2013-08-01 17:40:00,
2013-08-01 13:55:00,75.1,67.0,29.99,NNE,27,4.0,6.0,77,0.00,,,0.00,272,weatherlink.com 1.10,2013-08-01 17:55:00,
2013-08-01 14:10:00,76.0,69.0,29.98,East,82,1.0,5.0,78,0.00,,,0.00,506,weatherlink.com 1.10,2013-08-01 18:10:00,
2013-08-01 14:25:00,77.0,68.0,29.98,WNW,292,0.0,6.0,74,0.00,,,0.00,156,weatherlink.com 1.10,2013-08-01 18:25:00,
2013-08-01 14:55:00,75.7,68.0,29.99,NNW,329,1.0,5.0,76,0.00,,,0.00,93,weatherlink.com 1.10,2013-08-01 18:55:00,
2013-08-01 15:10:00,74.7,67.0,29.99,NNW,342,0.0,5.0,77,0.00,,,0.00,130,weatherlink.com 1.10,2013-08-01 19:10:00,
2013-08-01 15:25:00,73.8,67.0,29.99,West,271,0.0,5.0,79,0.00,,,0.00,62,weatherlink.com 1.10,2013-08-01 19:25:00,
2013-08-01 15:40:00,72.6,65.0,29.99,WSW,247,0.0,6.0,76,0.00,,,0.00,69,weatherlink.com 1.10,2013-08-01 19:40:00,
2013-08-01 15:55:00,71.9,64.0,29.99,SW,232,1.0,6.0,76,0.00,,,0.00,62,weatherlink.com 1.10,2013-08-01 19:55:00,
2013-08-01 16:25:00,70.2,65.0,29.99,NNW,347,0.0,3.0,84,0.00,,,0.00,37,weatherlink.com 1.10,2013-08-01 20:25:00,
2013-08-01 16:40:00,69.7,66.0,29.98,West,272,0.0,4.0,87,0.00,,,0.00,32,weatherlink.com 1.10,2013-08-01 20:40:00,
2013-08-01 16:55:00,69.4,66.0,29.98,West,269,0.0,2.0,88,0.01,,,0.01,51,weatherlink.com 1.10,2013-08-01 20:55:00,
2013-08-01 17:10:00,69.0,66.0,29.98,West,261,0.0,3.0,90,0.01,,,0.01,63,weatherlink.com 1.10,2013-08-01 21:10:00,
2013-08-01 17:25:00,69.1,66.0,29.96,WNW,290,1.0,3.0,90,0.01,,,0.01,97,weatherlink.com 1.10,2013-08-01 21:25:00,
2013-08-01 17:40:00,69.0,67.0,29.95,WNW,294,0.0,1.0,92,0.01,,,0.01,74,weatherlink.com 1.10,2013-08-01 21:40:00,
2013-08-01 17:55:00,69.1,67.0,29.95,WNW,294,0.0,0.0,92,0.00,,,0.01,33,weatherlink.com 1.10,2013-08-01 21:55:00,
2013-08-01 18:10:00,68.9,66.0,29.95,WNW,294,0.0,1.0,91,0.00,,,0.01,35,weatherlink.com 1.10,2013-08-01 22:10:00,
2013-08-01 18:25:00,68.8,66.0,29.96,WNW,293,0.0,1.0,92,0.00,,,0.01,40,weatherlink.com 1.10,2013-08-01 22:25:00,
2013-08-01 18:40:00,68.6,67.0,29.97,WNW,294,0.0,0.0,93,0.00,,,0.01,23,weatherlink.com 1.10,2013-08-01 22:40:00,
2013-08-01 19:10:00,68.0,66.0,29.95,NNE,23,0.0,2.0,93,0.00,,,0.01,14,weatherlink.com 1.10,2013-08-01 23:10:00,
2013-08-01 19:25:00,67.7,66.0,29.95,NNE,26,0.0,1.0,94,0.00,,,0.01,5,weatherlink.com 1.10,2013-08-01 23:25:00,
2013-08-01 19:40:00,67.3,65.0,29.95,ENE,57,0.0,1.0,93,0.00,,,0.00,0,weatherlink.com 1.10,2013-08-01 23:40:00,
2013-08-01 19:55:00,66.9,65.0,29.96,North,5,0.0,2.0,93,0.00,,,0.00,0,weatherlink.com 1.10,2013-08-01 23:55:00,
2013-08-01 20:10:00,66.7,64.0,29.96,East,90,0.0,7.0,92,0.00,,,0.00,0,weatherlink.com 1.10,2013-08-02 00:10:00,
2013-08-01 20:25:00,66.4,64.0,29.96,ENE,78,1.0,6.0,91,0.00,,,0.00,0,weatherlink.com 1.10,2013-08-02 00:25:00,
2013-08-01 20:40:00,66.1,64.0,29.95,NE,45,0.0,5.0,91,0.00,,,0.00,0,weatherlink.com 1.10,2013-08-02 00:40:00,
2013-08-01 20:55:00,65.7,64.0,29.95,North,355,0.0,2.0,93,0.00,,,0.00,0,weatherlink.com 1.10,2013-08-02 00:55:00,
2013-08-01 21:10:00,65.5,64.0,29.95,NE,48,0.0,2.0,94,0.00,,,0.00,0,weatherlink.com 1.10,2013-08-02 01:10:00,
2013-08-01 21:25:00,65.4,64.0,29.95,NNE,13,0.0,2.0,94,0.00,,,0.00,0,weatherlink.com 1.10,2013-08-02 01:25:00,
2013-08-01 21:40:00,65.3,64.0,29.95,WNW,300,3.0,3.0,95,0.00,,,0.00,0,weatherlink.com 1.10,2013-08-02 01:40:00,
2013-08-01 21:55:00,65.4,64.0,29.94,NNE,24,0.0,2.0,95,0.00,,,0.00,0,weatherlink.com 1.10,2013-08-02 01:55:00,
2013-08-01 22:10:00,65.3,64.0,29.94,NE,36,0.0,3.0,95,0.00,,,0.00,0,weatherlink.com 1.10,2013-08-02 02:10:00,
2013-08-01 22:40:00,64.9,64.0,29.93,East,90,0.0,1.0,96,0.00,,,0.00,0,weatherlink.com 1.10,2013-08-02 02:40:00,
2013-08-01 22:55:00,64.9,64.0,29.93,ENE,69,0.0,1.0,96,0.00,,,0.00,0,weatherlink.com 1.10,2013-08-02 02:55:00,
2013-08-01 23:10:00,64.9,64.0,29.92,ENE,69,0.0,1.0,96,0.00,,,0.00,0,weatherlink.com 1.10,2013-08-02 03:10:00,
2013-08-01 23:26:00,64.8,64.0,29.91,ENE,69,0.0,1.0,96,0.00,,,0.00,0,weatherlink.com 1.10,2013-08-02 03:26:00,
2013-08-01 23:41:00,64.7,64.0,29.91,ENE,69,0.0,0.0,96,0.00,,,0.00,0,weatherlink.com 1.10,2013-08-02 03:41:00,
2013-08-01 23:56:00,64.6,64.0,29.91,ENE,69,0.0,1.0,96,0.00,,,0.00,0,weatherlink.com 1.10,2013-08-02 03:56:00,